Tropical Cyclones
[Index]
Main Index Home Page Stock Weather Photos Extreme Storms Discussion Storm News and Storm Chasing Reports Tropical Cyclones / Hurricanes / Typhoons Weather Data and Links Wild Fires / Bushfires Weather Observation Techniques Weather Picture Catalogue Tornado Pictures and Reports Stock Video Footage and DVDs for sale
Season 1982-1983 Tropical Cyclone JANE Track Map
Season 1982-1983 Summaries: [BoM-AU] [JTWC-AU] [JTWC-SIO] [JTWC-SPAC] [JTWC-SH]
<<- Previous TC | JTWC 1982-1983 Season | Next TC ->>

click for intensity scale information  Lat/long Grid: Show Hide

 Date Labels: Show Hide

Joint Typhoon Warning Centre Cyclone Data

Name: JANE

04 Jan 1983 06:00 UTC to 10 Jan 1983 18:00 UTC

    date/time    lat    long     hPa   cat  kts
1983-01-04 06   15.0   115.3                  25          
1983-01-04 12   15.2   115.1                  25          
1983-01-04 18   15.1   114.9                  25          
1983-01-05 00   14.8   114.7                  30          
1983-01-05 06   14.5   114.8                  30          
1983-01-05 12   14.1   115.2                  30          
1983-01-05 18   13.8   115.8                  30          
1983-01-06 00   13.7   116.4                  30          
1983-01-06 06   14.0   117.0                  30          
1983-01-06 12   14.6   117.4                  30          
1983-01-06 18   15.2   117.7                  30          
1983-01-07 00   15.9   118.0                  35          
1983-01-07 06   16.5   118.2            1     45          
1983-01-07 12   16.9   118.3            1     50          
1983-01-07 18   17.2   118.3            2     55          
1983-01-08 00   17.4   118.3            2     65          
1983-01-08 06   17.7   118.3            3     75          
1983-01-08 12   18.2   118.4            3     80          
1983-01-08 18   18.7   118.7            3     80          
1983-01-09 00   19.3   119.0            3     80          
1983-01-09 06   19.9   119.5            3     80          
1983-01-09 12   20.6   120.2            3     75          
1983-01-09 18   21.3   121.3            2     65          
1983-01-10 00   22.2   122.6            1     50          
1983-01-10 06   23.1   124.0            1     40          
1983-01-10 12   23.6   125.6                  35          
1983-01-10 18   23.7   127.3                  30          
Winds are 1-min average.

Tropical cyclone tracks developed by Michael Bath using data from the Joint Typhoon Warning Centre Best Tracks and Google Maps.


[Australian Severe Weather index] [Copyright Notice] [Email Contacts] [Search This Site] [Privacy Policy]
Document: tropical_cyclone_jane.htm Updated: 18 September 2016